createdAt,value
2022-07-26T00:00:50.627Z,8.98
2022-07-26T00:03:17.900Z,8.65
2022-07-26T00:05:45.056Z,8.93
2022-07-26T00:08:12.448Z,8.75
2022-07-26T00:10:45.263Z,8.00
2022-07-26T00:13:13.589Z,8.57
2022-07-26T00:15:40.857Z,8.10
2022-07-26T00:18:12.062Z,8.43
2022-07-26T00:20:40.021Z,9.50
2022-07-26T00:23:08.697Z,8.50
2022-07-26T00:25:35.969Z,9.43
2022-07-26T00:28:03.300Z,9.07
2022-07-26T00:30:30.771Z,9.77
2022-07-26T00:32:58.012Z,8.88
2022-07-26T00:35:25.306Z,9.45
2022-07-26T00:37:52.987Z,9.50
2022-07-26T00:40:20.088Z,9.10
2022-07-26T00:42:47.423Z,8.85
2022-07-26T00:45:15.420Z,8.45
2022-07-26T00:47:42.662Z,9.45
2022-07-26T00:50:13.813Z,8.45
2022-07-26T00:52:49.380Z,8.57
2022-07-26T00:55:18.223Z,9.40
2022-07-26T00:57:45.993Z,8.43
2022-07-26T01:00:17.964Z,9.05
2022-07-26T01:02:45.902Z,9.20
2022-07-26T01:05:13.270Z,9.07
2022-07-26T01:07:41.149Z,8.50
2022-07-26T01:10:12.694Z,8.40
2022-07-26T01:12:41.294Z,9.35
2022-07-26T01:15:09.929Z,8.40
2022-07-26T01:17:38.241Z,8.82
2022-07-26T01:20:08.686Z,9.43
2022-07-26T01:22:35.974Z,8.43
2022-07-26T01:25:03.229Z,8.93
2022-07-26T01:27:33.939Z,9.00
2022-07-26T01:30:01.337Z,8.55
2022-07-26T01:32:28.579Z,8.68
2022-07-26T01:34:55.620Z,9.80
2022-07-26T01:37:22.671Z,8.27
2022-07-26T01:39:49.843Z,8.73
2022-07-26T01:42:16.917Z,8.88
2022-07-26T01:44:44.122Z,7.90
2022-07-26T01:47:11.158Z,9.18
2022-07-26T01:49:38.332Z,8.73
2022-07-26T01:52:05.779Z,8.15
2022-07-26T01:54:32.890Z,8.05
2022-07-26T01:56:59.921Z,8.23
2022-07-26T01:59:27.093Z,8.77
2022-07-26T02:01:54.335Z,8.40
2022-07-26T02:04:39.890Z,8.98
2022-07-26T02:07:10.783Z,10.50
2022-07-26T02:09:40.583Z,9.35
2022-07-26T02:12:07.984Z,8.95
2022-07-26T02:14:35.105Z,8.30
2022-07-26T02:17:02.314Z,8.77
2022-07-26T02:19:30.004Z,8.95
2022-07-26T02:21:57.323Z,8.55
2022-07-26T02:24:24.601Z,8.40
2022-07-26T02:26:52.001Z,8.30
2022-07-26T02:29:19.182Z,8.20
2022-07-26T02:31:48.506Z,8.63
2022-07-26T02:34:16.764Z,8.60
2022-07-26T02:36:44.112Z,8.82
2022-07-26T02:39:11.514Z,8.75
2022-07-26T02:41:39.099Z,9.30
2022-07-26T02:44:07.394Z,9.43
2022-07-26T02:46:35.272Z,8.80
2022-07-26T02:49:02.440Z,8.20
2022-07-26T02:51:29.716Z,8.27
2022-07-26T02:53:56.858Z,8.32
2022-07-26T02:56:24.015Z,8.70
2022-07-26T02:58:51.250Z,8.70
2022-07-26T03:01:18.479Z,8.60
2022-07-26T03:03:50.400Z,8.27
2022-07-26T03:06:19.209Z,9.07
2022-07-26T03:08:47.303Z,8.02
2022-07-26T03:11:14.574Z,8.25
2022-07-26T03:13:41.699Z,7.97
2022-07-26T03:16:09.202Z,7.80
2022-07-26T03:18:36.411Z,7.93
2022-07-26T03:21:03.927Z,8.23
2022-07-26T03:23:33.753Z,8.85
2022-07-26T03:26:02.602Z,8.93
2022-07-26T03:28:33.898Z,9.10
2022-07-26T03:31:01.655Z,10.80
2022-07-26T03:33:30.506Z,10.80
2022-07-26T03:35:57.700Z,11.30
2022-07-26T03:38:24.901Z,11.50
2022-07-26T03:40:52.618Z,9.80
2022-07-26T03:43:23.029Z,8.80
2022-07-26T03:45:51.239Z,8.80
2022-07-26T03:48:21.999Z,8.70
2022-07-26T03:50:49.021Z,7.72
2022-07-26T03:53:16.089Z,8.18
2022-07-26T03:56:01.644Z,7.63
2022-07-26T03:58:28.911Z,7.65
2022-07-26T04:00:56.138Z,7.70
2022-07-26T04:03:23.389Z,8.20
2022-07-26T04:05:50.591Z,7.78
2022-07-26T04:08:20.164Z,8.15
2022-07-26T04:10:53.890Z,7.75
2022-07-26T04:13:21.229Z,8.15
2022-07-26T04:15:48.352Z,8.43
2022-07-26T04:18:15.734Z,7.82
2022-07-26T04:20:43.508Z,8.00
2022-07-26T04:23:11.819Z,7.85
2022-07-26T04:25:41.535Z,7.97
2022-07-26T04:28:10.043Z,7.57
2022-07-26T04:30:37.590Z,7.93
2022-07-26T04:33:05.649Z,7.95
2022-07-26T04:35:33.447Z,7.95
2022-07-26T04:38:02.562Z,8.43
2022-07-26T04:40:33.679Z,8.27
2022-07-26T04:43:02.369Z,8.65
2022-07-26T04:45:30.270Z,8.15
2022-07-26T04:47:58.460Z,8.75
2022-07-26T04:50:28.202Z,9.40
2022-07-26T04:52:55.787Z,9.45
2022-07-26T04:55:23.839Z,9.48
2022-07-26T04:57:51.842Z,12.05
2022-07-26T05:00:24.228Z,16.00
2022-07-26T05:02:57.977Z,15.18
2022-07-26T05:05:27.386Z,13.80
2022-07-26T05:07:56.605Z,13.45
2022-07-26T05:10:34.081Z,10.10
2022-07-26T05:13:04.097Z,9.45
2022-07-26T05:15:35.542Z,8.32
2022-07-26T05:18:10.963Z,7.88
2022-07-26T05:20:41.012Z,7.43
2022-07-26T05:23:08.216Z,7.25
2022-07-26T05:25:36.725Z,6.63
2022-07-26T05:28:04.417Z,7.13
2022-07-26T05:30:31.688Z,7.15
2022-07-26T05:32:58.944Z,6.38
2022-07-26T05:35:26.067Z,5.45
2022-07-26T05:37:53.219Z,5.70
2022-07-26T05:40:20.512Z,5.72
2022-07-26T05:42:47.577Z,5.78
2022-07-26T05:45:14.811Z,6.03
2022-07-26T05:47:41.955Z,5.72
2022-07-26T05:50:09.514Z,5.95
2022-07-26T05:52:36.745Z,6.10
2022-07-26T05:55:04.166Z,5.70
2022-07-26T05:57:31.407Z,6.30
2022-07-26T05:59:58.458Z,7.00
2022-07-26T06:02:25.648Z,6.57
2022-07-26T06:04:52.982Z,6.70
2022-07-26T06:07:20.214Z,5.60
2022-07-26T06:09:47.337Z,5.47
2022-07-26T06:12:14.538Z,5.82
2022-07-26T06:14:41.674Z,5.07
2022-07-26T06:17:09.118Z,4.10
2022-07-26T06:19:36.250Z,5.03
2022-07-26T06:22:04.220Z,4.70
2022-07-26T06:24:31.675Z,4.78
2022-07-26T06:27:04.945Z,4.65
2022-07-26T06:29:33.412Z,4.70
2022-07-26T06:32:00.880Z,4.68
2022-07-26T06:34:28.371Z,4.20
2022-07-26T06:36:55.661Z,4.10
2022-07-26T06:39:22.910Z,4.85
2022-07-26T06:41:50.258Z,4.25
2022-07-26T06:44:23.018Z,3.95
2022-07-26T06:46:50.362Z,4.00
2022-07-26T06:49:21.959Z,4.55
2022-07-26T06:51:49.667Z,4.00
2022-07-26T06:54:16.825Z,5.13
2022-07-26T06:56:44.117Z,4.93
2022-07-26T06:59:11.242Z,4.70
2022-07-26T07:01:51.725Z,4.82
2022-07-26T07:04:25.650Z,4.47
2022-07-26T07:06:52.755Z,4.72
2022-07-26T07:09:20.087Z,3.88
2022-07-26T07:11:53.696Z,4.40
2022-07-26T07:14:25.892Z,4.63
2022-07-26T07:16:53.219Z,4.35
2022-07-26T07:19:20.415Z,4.70
2022-07-26T07:21:47.500Z,5.13
2022-07-26T07:24:14.890Z,5.15
2022-07-26T07:26:42.384Z,6.00
2022-07-26T07:29:15.509Z,8.10
2022-07-26T07:31:48.001Z,9.20
2022-07-26T07:34:19.677Z,10.25
2022-07-26T07:36:47.159Z,13.18
2022-07-26T07:39:17.454Z,12.70
2022-07-26T07:41:47.235Z,14.82
2022-07-26T07:44:14.838Z,17.00
2022-07-26T07:46:42.174Z,15.68
2022-07-26T07:49:11.106Z,12.50
2022-07-26T07:51:38.835Z,10.20
2022-07-26T07:54:06.408Z,9.15
2022-07-26T07:56:34.778Z,8.70
2022-07-26T07:59:02.138Z,8.30
2022-07-26T08:01:40.312Z,8.75
2022-07-26T08:04:09.710Z,8.45
2022-07-26T08:06:37.142Z,7.43
2022-07-26T08:09:06.388Z,7.43
2022-07-26T08:11:34.319Z,7.03
2022-07-26T08:14:02.331Z,6.95
2022-07-26T08:16:29.694Z,6.70
2022-07-26T08:18:58.374Z,6.25
2022-07-26T08:21:29.095Z,6.93
2022-07-26T08:23:57.546Z,6.43
2022-07-26T08:26:25.104Z,7.30
2022-07-26T08:28:59.856Z,6.90
2022-07-26T08:31:29.115Z,7.95
2022-07-26T08:33:56.597Z,8.02
2022-07-26T08:36:26.178Z,7.28
2022-07-26T08:38:58.263Z,7.13
2022-07-26T08:41:25.361Z,7.70
2022-07-26T08:43:53.755Z,7.10
2022-07-26T08:46:26.535Z,7.15
2022-07-26T08:48:56.936Z,6.95
2022-07-26T08:51:25.790Z,5.75
2022-07-26T08:54:03.741Z,6.20
2022-07-26T08:56:34.395Z,5.50
2022-07-26T08:59:17.177Z,6.07
2022-07-26T09:02:00.071Z,5.47
2022-07-26T09:04:35.378Z,6.03
2022-07-26T09:07:19.247Z,5.75
2022-07-26T09:09:55.548Z,6.07
2022-07-26T09:12:24.374Z,5.30
2022-07-26T09:14:51.866Z,5.47
2022-07-26T09:17:21.145Z,5.47
2022-07-26T09:20:13.265Z,6.22
2022-07-26T09:22:58.718Z,6.35
2022-07-26T09:25:27.298Z,5.82
2022-07-26T09:27:54.837Z,6.22
2022-07-26T09:30:22.273Z,6.05
2022-07-26T09:33:03.231Z,5.78
2022-07-26T09:35:50.939Z,6.20
2022-07-26T09:38:19.484Z,5.20
2022-07-26T09:40:50.600Z,5.32
2022-07-26T09:43:24.202Z,5.95
2022-07-26T09:46:06.280Z,5.90
2022-07-26T09:48:59.341Z,5.15
2022-07-26T09:51:42.152Z,5.65
2022-07-26T09:54:11.590Z,5.53
2022-07-26T09:56:57.609Z,6.00
2022-07-26T09:59:26.235Z,5.97
2022-07-26T10:01:54.900Z,5.80
2022-07-26T10:04:22.235Z,5.25
2022-07-26T10:06:49.719Z,5.90
2022-07-26T10:09:18.733Z,5.60
2022-07-26T10:11:57.367Z,5.03
2022-07-26T10:14:33.790Z,5.05
2022-07-26T10:17:21.904Z,5.93
2022-07-26T10:20:03.803Z,6.70
2022-07-26T10:22:31.387Z,5.60
2022-07-26T10:25:18.376Z,5.60
2022-07-26T10:27:47.453Z,5.68
2022-07-26T10:30:17.747Z,5.05
2022-07-26T10:32:59.851Z,5.57
2022-07-26T10:35:30.294Z,5.45
2022-07-26T10:37:59.789Z,5.28
2022-07-26T10:40:30.368Z,5.93
2022-07-26T10:43:39.408Z,5.13
2022-07-26T10:46:18.109Z,4.32
2022-07-26T10:49:09.023Z,5.03
2022-07-26T10:51:41.175Z,4.95
2022-07-26T10:54:14.087Z,5.47
2022-07-26T10:56:41.576Z,5.07
2022-07-26T10:59:08.842Z,5.07
2022-07-26T11:01:38.733Z,5.35
2022-07-26T11:04:07.578Z,5.50
2022-07-26T11:06:35.044Z,5.57
2022-07-26T11:09:11.164Z,6.00
2022-07-26T11:11:38.819Z,5.25
2022-07-26T11:14:11.617Z,5.88
2022-07-26T11:16:50.230Z,5.75
2022-07-26T11:19:20.233Z,5.57
2022-07-26T11:21:55.577Z,5.20
2022-07-26T11:24:23.010Z,5.50
2022-07-26T11:26:50.551Z,5.28
2022-07-26T11:29:35.636Z,5.35
2022-07-26T11:32:17.729Z,5.63
2022-07-26T11:34:46.176Z,5.57
2022-07-26T11:37:13.844Z,5.53
2022-07-26T11:39:41.302Z,5.35
2022-07-26T11:42:19.804Z,5.45
2022-07-26T11:44:48.587Z,5.28
2022-07-26T11:47:24.399Z,4.60
2022-07-26T11:52:41.235Z,5.25
2022-07-26T11:55:09.109Z,4.97
2022-07-26T11:57:36.350Z,5.07
2022-07-26T12:00:04.777Z,4.82
2022-07-26T12:02:40.892Z,4.90
2022-07-26T12:05:20.294Z,5.50
2022-07-26T12:08:05.413Z,5.13
2022-07-26T12:10:33.041Z,4.90
2022-07-26T12:13:08.002Z,4.88
2022-07-26T12:15:49.596Z,5.35
2022-07-26T12:18:50.963Z,4.80
2022-07-26T12:21:18.073Z,5.68
2022-07-26T12:23:49.037Z,5.15
2022-07-26T12:26:29.424Z,5.10
2022-07-26T12:28:58.448Z,5.47
2022-07-26T12:31:27.440Z,5.05
2022-07-26T12:33:55.305Z,5.35
2022-07-26T12:36:28.018Z,5.57
2022-07-26T12:39:00.599Z,5.68
2022-07-26T12:41:39.592Z,4.95
2022-07-26T12:44:08.765Z,5.00
2022-07-26T12:46:36.654Z,4.75
2022-07-26T12:49:05.333Z,4.10
2022-07-26T12:51:33.094Z,4.93
2022-07-26T12:54:00.355Z,4.40
2022-07-26T12:56:30.651Z,4.40
2022-07-26T12:59:01.761Z,4.55
2022-07-26T13:01:30.336Z,4.68
2022-07-26T13:03:57.711Z,4.45
2022-07-26T13:06:25.010Z,4.60
2022-07-26T13:08:56.760Z,4.57
2022-07-26T13:11:24.224Z,4.55
2022-07-26T13:13:51.493Z,4.57
2022-07-26T13:16:18.778Z,4.72
2022-07-26T13:18:47.920Z,4.65
2022-07-26T13:21:15.063Z,4.97
2022-07-26T13:23:44.548Z,4.63
2022-07-26T13:26:14.164Z,5.30
2022-07-26T13:28:41.889Z,4.80
2022-07-26T13:31:09.466Z,4.90
2022-07-26T13:33:39.463Z,5.38
2022-07-26T13:36:07.055Z,5.15
2022-07-26T13:38:34.263Z,5.40
2022-07-26T13:41:03.554Z,6.20
2022-07-26T13:43:33.360Z,5.50
2022-07-26T13:46:00.652Z,5.82
2022-07-26T13:48:30.029Z,5.40
2022-07-26T13:50:57.891Z,6.10
2022-07-26T13:53:25.311Z,5.20
2022-07-26T13:55:52.585Z,6.07
2022-07-26T13:58:21.861Z,5.57
2022-07-26T14:00:49.487Z,6.15
2022-07-26T14:03:17.056Z,5.90
2022-07-26T14:05:44.274Z,5.63
2022-07-26T14:08:11.748Z,5.80
2022-07-26T14:10:40.183Z,6.13
2022-07-26T14:13:08.512Z,6.03
2022-07-26T14:15:36.482Z,6.35
2022-07-26T14:18:04.198Z,6.25
2022-07-26T14:20:31.353Z,7.25
2022-07-26T14:22:58.429Z,6.28
2022-07-26T14:25:27.856Z,6.43
2022-07-26T14:27:55.603Z,5.97
2022-07-26T14:30:23.504Z,6.50
2022-07-26T14:32:51.201Z,6.50
2022-07-26T14:35:18.469Z,7.00
2022-07-26T14:37:46.218Z,6.47
2022-07-26T14:40:16.156Z,7.13
2022-07-26T14:42:43.867Z,7.70
2022-07-26T14:45:12.682Z,8.07
2022-07-26T14:47:40.482Z,8.35
2022-07-26T14:50:09.302Z,8.27
2022-07-26T14:52:42.534Z,8.75
2022-07-26T14:55:10.251Z,8.50
2022-07-26T14:57:39.103Z,8.55
2022-07-26T15:00:13.151Z,8.60
2022-07-26T15:02:45.771Z,9.10
2022-07-26T15:05:14.418Z,10.10
2022-07-26T15:07:42.282Z,8.73
2022-07-26T15:10:12.209Z,8.60
2022-07-26T15:12:39.908Z,10.05
2022-07-26T15:15:07.946Z,9.35
2022-07-26T15:17:36.142Z,9.40
2022-07-26T15:20:04.206Z,9.90
2022-07-26T15:22:31.532Z,10.50
2022-07-26T15:24:58.772Z,10.13
2022-07-26T15:27:26.034Z,10.35
2022-07-26T15:29:53.154Z,11.05
2022-07-26T15:32:21.497Z,11.15
2022-07-26T15:34:49.033Z,10.95
2022-07-26T15:37:16.563Z,11.40
2022-07-26T15:39:43.693Z,11.20
2022-07-26T15:42:11.041Z,12.10
2022-07-26T15:44:42.884Z,11.68
2022-07-26T15:47:11.015Z,11.65
2022-07-26T15:49:40.165Z,10.73
2022-07-26T15:52:12.996Z,12.75
2022-07-26T15:54:42.503Z,11.35
2022-07-26T15:57:09.796Z,12.80
2022-07-26T15:59:36.973Z,11.02
2022-07-26T16:02:06.186Z,11.82
2022-07-26T16:04:33.707Z,12.90
2022-07-26T16:07:01.008Z,12.13
2022-07-26T16:09:28.417Z,12.68
2022-07-26T16:11:56.756Z,11.88
2022-07-26T16:14:23.903Z,12.40
2022-07-26T16:16:51.273Z,12.77
2022-07-26T16:19:18.438Z,12.25
2022-07-26T16:21:45.653Z,12.80
2022-07-26T16:24:13.156Z,12.93
2022-07-26T16:26:40.992Z,12.70
2022-07-26T16:29:09.056Z,12.77
2022-07-26T16:31:37.332Z,11.85
2022-07-26T16:34:04.642Z,12.07
2022-07-26T16:36:31.928Z,13.32
2022-07-26T16:38:59.207Z,13.45
2022-07-26T16:41:26.357Z,13.32
2022-07-26T16:43:53.583Z,13.65
2022-07-26T16:46:21.076Z,13.32
2022-07-26T16:48:48.564Z,14.02
2022-07-26T16:51:16.845Z,13.68
2022-07-26T16:53:44.596Z,14.10
2022-07-26T16:56:11.757Z,15.75
2022-07-26T16:58:38.947Z,14.77
2022-07-26T17:01:06.263Z,15.98
2022-07-26T17:03:33.379Z,15.30
2022-07-26T17:06:06.503Z,15.52
2022-07-26T17:08:34.194Z,15.25
2022-07-26T17:11:01.631Z,15.02
2022-07-26T17:13:28.792Z,16.55
2022-07-26T17:15:56.052Z,16.52
2022-07-26T17:18:23.219Z,16.73
2022-07-26T17:20:50.482Z,15.32
2022-07-26T17:23:18.727Z,15.43
2022-07-26T17:25:46.299Z,16.35
2022-07-26T17:28:13.953Z,15.13
2022-07-26T17:30:41.155Z,14.38
2022-07-26T17:33:08.312Z,15.02
2022-07-26T17:35:35.758Z,15.20
2022-07-26T17:38:02.963Z,15.68
2022-07-26T17:40:31.893Z,14.90
2022-07-26T17:42:59.899Z,15.45
2022-07-26T17:45:27.080Z,14.85
2022-07-26T17:47:54.205Z,16.30
2022-07-26T17:50:38.226Z,16.65
2022-07-26T17:53:06.071Z,16.73
2022-07-26T17:55:34.158Z,15.85
2022-07-26T17:58:01.519Z,16.17
2022-07-26T18:00:29.366Z,15.77
2022-07-26T18:02:57.886Z,15.35
2022-07-26T18:05:33.013Z,15.82
2022-07-26T18:08:02.248Z,14.00
2022-07-26T18:10:29.534Z,14.48
2022-07-26T18:12:56.611Z,14.85
2022-07-26T18:15:23.961Z,14.98
2022-07-26T18:17:51.058Z,16.05
2022-07-26T18:20:18.248Z,14.88
2022-07-26T18:22:50.361Z,15.57
2022-07-26T18:25:17.937Z,15.68
2022-07-26T18:27:45.241Z,16.42
2022-07-26T18:30:12.517Z,17.33
2022-07-26T18:32:39.746Z,17.25
2022-07-26T18:35:07.314Z,15.45
2022-07-26T18:37:34.601Z,15.10
2022-07-26T18:40:02.228Z,15.73
2022-07-26T18:42:29.519Z,16.13
2022-07-26T18:44:56.919Z,15.05
2022-07-26T18:47:24.274Z,15.25
2022-07-26T18:49:51.582Z,14.63
2022-07-26T18:52:28.943Z,14.45
2022-07-26T18:55:02.426Z,15.10
2022-07-26T18:57:29.684Z,14.75
2022-07-26T18:59:56.777Z,14.80
2022-07-26T19:02:23.908Z,13.43
2022-07-26T19:04:51.151Z,14.23
2022-07-26T19:07:18.439Z,13.63
2022-07-26T19:09:45.531Z,13.98
2022-07-26T19:12:12.639Z,14.80
2022-07-26T19:14:39.741Z,13.32
2022-07-26T19:17:10.095Z,13.85
2022-07-26T19:19:38.795Z,13.13
2022-07-26T19:22:06.020Z,13.23
2022-07-26T19:24:41.741Z,12.88
2022-07-26T19:27:09.757Z,13.13
2022-07-26T19:29:38.172Z,13.55
2022-07-26T19:32:05.936Z,12.30
2022-07-26T19:34:33.110Z,12.85
2022-07-26T19:37:00.510Z,13.32
2022-07-26T19:39:27.650Z,12.82
2022-07-26T19:41:55.010Z,13.10
2022-07-26T19:44:22.162Z,12.98
2022-07-26T19:46:52.993Z,13.80
2022-07-26T19:49:22.927Z,13.73
2022-07-26T19:51:50.469Z,12.73
2022-07-26T19:54:17.669Z,12.63
2022-07-26T19:56:46.530Z,14.85
2022-07-26T19:59:16.878Z,13.65
2022-07-26T20:01:50.037Z,14.02
2022-07-26T20:04:18.692Z,14.32
2022-07-26T20:06:46.302Z,14.18
2022-07-26T20:09:14.122Z,13.55
2022-07-26T20:11:43.206Z,13.90
2022-07-26T20:14:10.406Z,13.90
2022-07-26T20:16:37.738Z,13.95
2022-07-26T20:19:05.007Z,15.98
2022-07-26T20:21:32.241Z,14.77
2022-07-26T20:23:59.375Z,14.23
2022-07-26T20:26:26.544Z,13.98
2022-07-26T20:28:55.401Z,14.65
2022-07-26T20:31:22.803Z,13.30
2022-07-26T20:33:49.996Z,14.52
2022-07-26T20:36:17.322Z,14.65
2022-07-26T20:38:49.542Z,14.73
2022-07-26T20:41:18.763Z,15.45
2022-07-26T20:43:48.598Z,14.98
2022-07-26T20:46:15.979Z,14.82
2022-07-26T20:48:43.761Z,15.77
2022-07-26T20:51:13.254Z,15.05
2022-07-26T20:53:41.816Z,14.65
2022-07-26T20:56:10.500Z,15.43
2022-07-26T20:58:39.003Z,14.30
2022-07-26T21:01:06.399Z,15.30
2022-07-26T21:03:33.745Z,14.43
2022-07-26T21:06:01.051Z,14.43
2022-07-26T21:08:28.367Z,15.02
2022-07-26T21:10:55.490Z,14.52
2022-07-26T21:13:22.587Z,14.93
2022-07-26T21:15:51.477Z,14.27
2022-07-26T21:18:18.593Z,15.07
2022-07-26T21:20:46.106Z,14.40
2022-07-26T21:23:17.865Z,14.13
2022-07-26T21:25:45.764Z,16.17
2022-07-26T21:28:12.878Z,15.30
2022-07-26T21:30:40.269Z,14.80
2022-07-26T21:33:08.079Z,14.23
2022-07-26T21:35:35.383Z,13.48
2022-07-26T21:38:02.557Z,13.68
2022-07-26T21:40:29.850Z,13.77
2022-07-26T21:42:57.040Z,14.10
2022-07-26T21:45:24.102Z,13.43
2022-07-26T21:47:51.436Z,13.80
2022-07-26T21:50:18.548Z,15.02
2022-07-26T21:52:45.728Z,14.30
2022-07-26T21:55:15.462Z,13.25
2022-07-26T21:57:45.323Z,12.95
2022-07-26T22:00:15.170Z,13.40
2022-07-26T22:02:42.587Z,11.63
2022-07-26T22:05:28.528Z,11.48
2022-07-26T22:07:56.175Z,12.50
2022-07-26T22:10:23.615Z,11.95
2022-07-26T22:12:51.633Z,11.23
2022-07-26T22:15:19.069Z,11.68
2022-07-26T22:17:46.401Z,11.50
2022-07-26T22:20:13.642Z,12.25
2022-07-26T22:22:40.921Z,11.50
2022-07-26T22:25:08.657Z,11.30
2022-07-26T22:27:35.732Z,12.30
2022-07-26T22:30:03.071Z,12.85
2022-07-26T22:32:30.199Z,13.15
2022-07-26T22:34:57.310Z,12.52
2022-07-26T22:37:24.438Z,12.95
2022-07-26T22:39:51.534Z,14.20
2022-07-26T22:42:18.774Z,12.75
2022-07-26T22:44:45.883Z,13.55
2022-07-26T22:47:13.140Z,14.10
2022-07-26T22:49:40.264Z,13.32
2022-07-26T22:52:07.516Z,14.30
2022-07-26T22:54:34.608Z,14.40
2022-07-26T22:57:01.800Z,13.93
2022-07-26T22:59:28.932Z,13.52
2022-07-26T23:01:56.856Z,13.10
2022-07-26T23:04:24.035Z,12.05
2022-07-26T23:06:51.359Z,13.00
2022-07-26T23:09:22.059Z,12.07
2022-07-26T23:11:49.153Z,12.88
2022-07-26T23:14:16.227Z,12.43
2022-07-26T23:16:43.476Z,12.43
2022-07-26T23:19:11.619Z,12.38
2022-07-26T23:21:39.042Z,13.18
2022-07-26T23:24:06.573Z,12.27
2022-07-26T23:26:33.723Z,12.73
2022-07-26T23:29:00.939Z,12.57
2022-07-26T23:31:28.172Z,12.57
2022-07-26T23:33:55.221Z,13.50
2022-07-26T23:36:24.507Z,13.05
2022-07-26T23:38:51.864Z,13.88
2022-07-26T23:41:19.515Z,13.10
2022-07-26T23:43:46.616Z,12.68
2022-07-26T23:46:14.030Z,12.82
2022-07-26T23:48:41.190Z,13.27
2022-07-26T23:51:08.421Z,12.40
2022-07-26T23:53:35.715Z,13.68
2022-07-26T23:56:03.192Z,12.88
2022-07-26T23:58:30.498Z,13.05
